Airfield :
LOGIN :

Register | Disclaimer

   EN    FR    IT 

 










Legend :    VFR   Marginal VFR   IFR   Intensive IFR   Very Intensive IFR
Visi :
Ceiling :
>= 8 km
>= 3000ft
5 to 8 km
1000 to 3000 ft
1500m to 5 km
500 to 1000 ft
800 to 1500m
200 to 500 ft
< 800m
< 200 ft
Symbols :   Thunderstorms  Fog  Heavy snow  Heavy precipitations  Wind > 20 kt
SIGMETs :     Misc.  Thunderstorms  Icing  Turbulence  Mountain Waves  Volcanic Ashes






- Airport Elevation : 1079 ft


ETIK - Illesheim Air Base

CURRENT METAR :
  • 181956Z AUTO 24006KT 9999 FEW021 OVC050 02/02 A3034 RMK AO2 SLP292 T00180018 $

EXPIRED METARs :
  • 181856Z AUTO 22003KT 9999 FEW026 SCT032 OVC055 01/01 A3033 RMK AO2 SLP289 T00140014
  • 181756Z AUTO 25005KT 9999 BKN021 OVC031 03/03 A3032 RMK AO2 CIG 021V031 BKN V FEW SLP284 T00280028 10060 20022 52012 $

TAF AMD TAF ETIK
Valid from the 17 at 17:00 until the 18 at 21:00 UTC


171744Z 1717/1821 24009KT 9999 OVC030 QNH3006INS
BECMG 1720/1721 25009KT 8000 -SHRA OVC015 620508 QNH3009INS
TEMPO 1800/1803 BKN007
BECMG 1804/1805 27009KT 9999 NSW OVC015 620204 QNH3020INS
BECMG 1813/1814 25009KT 9999 OVC020 QNH3031INS TX09/1717Z TNM02/1806Z LAST NO AMDS AFT 1717 NEXT 1923



MET'MAP, your aeronautical weather chart ! - Copyright ORBIFLY December 2007 - Disclaimer

ORBIFLY MET'MAP TEAM :

Programming & Development : Alexandra Zaïnal
Concept & original design : Baudouin d'Aumeries
Assistance for programming : Marc-Olivier Méhu
Technical & hardware support : Manuel Goepfert

Contact : metmap@orbifly.com




SOURCES & CREDITS :

   NOAA